Time;durP1;ratioP1;P1;durP2;ratioP2;P2;SDS_P1;SDS_P2;PMS_P1;PMS_P2;Temp;Humidity;BMP_temperature;BMP_pressure;BME280_temperature;BME280_humidity;BME280_pressure;Samples;Min_cycle;Max_cycle;Signal;HPM_P1;HPM_P2
2022/08/28 00:00:40;;;;;;;5.70;3.10;;;;;;;19.52;48.08;101828.06;4965417;28;123080;-78
2022/08/28 00:03:10;;;;;;;7.10;2.75;;;;;;;19.48;48.22;101826.56;4950083;28;123572;-79
2022/08/28 00:05:38;;;;;;;7.50;3.20;;;;;;;19.46;48.20;101825.78;4965960;28;113371;-79
2022/08/28 00:08:07;;;;;;;5.80;2.97;;;;;;;19.43;48.23;101828.69;4949185;28;113882;-78
2022/08/28 00:10:35;;;;;;;8.27;3.20;;;;;;;19.40;48.44;101828.88;4951310;28;123877;-77
2022/08/28 00:13:02;;;;;;;6.22;2.70;;;;;;;19.39;48.66;101837.91;4951937;28;124002;-77
2022/08/28 00:15:35;;;;;;;9.32;3.28;;;;;;;19.38;48.71;101831.69;4949910;28;113394;-79
2022/08/28 00:18:04;;;;;;;6.95;3.15;;;;;;;19.37;48.72;101835.31;4947024;28;114462;-79
2022/08/28 00:20:33;;;;;;;7.63;2.90;;;;;;;19.35;48.59;101841.78;4966160;28;123928;-78
2022/08/28 00:23:00;;;;;;;10.52;3.58;;;;;;;19.33;48.87;101832.94;4953674;28;123266;-78
2022/08/28 00:25:30;;;;;;;8.25;3.10;;;;;;;19.32;49.13;101836.59;4969730;28;115367;-76
2022/08/28 00:28:00;;;;;;;8.65;3.60;;;;;;;19.31;48.88;101840.22;4972637;28;113582;-76
2022/08/28 00:30:36;;;;;;;8.23;3.17;;;;;;;19.29;49.13;101831.41;4958516;28;123446;-77
2022/08/28 00:33:11;;;;;;;8.93;3.33;;;;;;;19.27;49.16;101834.22;4964713;28;124548;-77
2022/08/28 00:35:40;;;;;;;7.32;3.13;;;;;;;19.23;49.25;101838.94;4953568;28;114099;-77
2022/08/28 00:38:09;;;;;;;9.05;3.38;;;;;;;19.22;49.19;101837.19;4952069;28;115176;-77
2022/08/28 00:40:37;;;;;;;6.53;3.15;;;;;;;19.19;49.42;101837.41;4951057;28;124368;-79
2022/08/28 00:43:07;;;;;;;10.80;3.38;;;;;;;19.17;49.41;101833.94;4950901;28;125080;-80
2022/08/28 00:45:34;;;;;;;10.57;3.22;;;;;;;19.15;49.38;101830.50;4949289;28;115952;-78
2022/08/28 00:48:06;;;;;;;9.57;3.08;;;;;;;19.12;49.65;101830.72;4948691;28;113697;-77
2022/08/28 00:53:26;;;;;;;8.60;3.40;;;;;;;19.12;49.85;101836.09;4935984;28;123781;-79
2022/08/28 00:56:04;;;;;;;6.50;3.05;;;;;;;19.13;49.79;101831.56;4920234;28;114448;-78
2022/08/28 00:58:42;;;;;;;8.80;3.65;;;;;;;19.09;49.75;101836.28;4932974;28;113179;-79
2022/08/28 01:01:10;;;;;;;9.00;3.13;;;;;;;19.10;49.67;101843.38;4950243;28;125910;-79
2022/08/28 01:03:37;;;;;;;6.35;2.97;;;;;;;19.06;49.87;101839.16;4950425;28;124404;-79
2022/08/28 01:06:05;;;;;;;7.90;3.70;;;;;;;19.04;49.84;101839.28;4946079;28;114222;-79
2022/08/28 01:08:35;;;;;;;10.82;3.75;;;;;;;19.01;49.93;101838.59;4948837;28;113628;-78
2022/08/28 01:11:06;;;;;;;7.35;3.05;;;;;;;18.96;49.93;101832.66;4946291;28;123339;-78
2022/08/28 01:13:37;;;;;;;8.30;3.42;;;;;;;18.92;50.18;101840.06;4947150;28;124834;-79
2022/08/28 01:16:06;;;;;;;6.68;3.45;;;;;;;18.90;50.23;101843.81;4945370;28;113322;-77
2022/08/28 01:18:34;;;;;;;10.85;3.65;;;;;;;18.89;50.31;101844.75;4955457;28;112934;-79
2022/08/28 01:21:13;;;;;;;8.93;3.78;;;;;;;18.84;50.42;101843.22;4945021;28;124089;-79
2022/08/28 01:23:53;;;;;;;9.90;3.83;;;;;;;18.83;50.42;101846.84;4948258;28;123702;-80
2022/08/28 01:26:23;;;;;;;11.02;3.67;;;;;;;18.82;50.42;101850.53;4950494;28;96884;-79
2022/08/28 01:28:51;;;;;;;10.05;3.58;;;;;;;18.79;50.70;101850.69;4942418;28;113311;-79
2022/08/28 01:31:19;;;;;;;9.80;3.63;;;;;;;18.76;50.65;101850.88;4946343;28;124558;-77
2022/08/28 01:33:46;;;;;;;8.60;3.30;;;;;;;18.73;50.66;101856.44;4948198;28;122772;-79
2022/08/28 01:36:15;;;;;;;10.68;3.28;;;;;;;18.70;50.57;101859.31;4950130;28;114069;-79
2022/08/28 01:38:46;;;;;;;12.25;3.50;;;;;;;18.67;50.70;101856.84;4944298;28;113858;-77
2022/08/28 01:41:15;;;;;;;10.23;3.85;;;;;;;18.65;50.83;101848.03;4940768;28;124438;-77
2022/08/28 01:43:42;;;;;;;9.75;3.67;;;;;;;18.61;50.85;101851.84;4947475;28;124197;-77
2022/08/28 01:46:11;;;;;;;8.65;3.20;;;;;;;18.59;50.93;101848.38;4948748;28;113302;-77
2022/08/28 01:48:42;;;;;;;9.60;3.60;;;;;;;18.56;51.14;101843.22;4945833;28;113465;-77
2022/08/28 01:51:10;;;;;;;9.88;3.78;;;;;;;18.53;51.08;101848.78;4950684;28;124184;-78
2022/08/28 01:53:38;;;;;;;9.10;3.58;;;;;;;18.51;51.18;101853.38;4946237;28;123615;-77
2022/08/28 01:56:10;;;;;;;8.73;3.47;;;;;;;18.47;51.12;101856.25;4949354;28;113974;-77
2022/08/28 01:58:38;;;;;;;9.38;3.30;;;;;;;18.46;51.24;101849.16;4949637;28;113820;-76
2022/08/28 02:01:14;;;;;;;9.52;2.97;;;;;;;18.42;51.39;101862.84;4947823;28;122569;-79
2022/08/28 02:03:41;;;;;;;10.48;3.65;;;;;;;18.38;51.68;101862.19;4948455;28;122947;-78
2022/08/28 02:06:10;;;;;;;8.75;3.38;;;;;;;18.34;51.53;101855.28;4937209;28;112906;-79
2022/08/28 02:08:37;;;;;;;11.70;3.67;;;;;;;18.31;51.71;101860.84;4949400;28;113874;-78
2022/08/28 02:11:07;;;;;;;8.45;3.30;;;;;;;18.29;51.85;101868.13;4943961;28;123777;-77
2022/08/28 02:13:36;;;;;;;9.05;3.50;;;;;;;18.26;51.82;101868.31;4925639;28;123897;-78
2022/08/28 02:16:05;;;;;;;8.93;3.35;;;;;;;18.23;52.00;101864.00;4945118;28;114460;-78
2022/08/28 02:18:33;;;;;;;7.47;3.13;;;;;;;18.23;52.02;101863.13;4944521;28;113255;-78
2022/08/28 02:21:00;;;;;;;7.93;3.47;;;;;;;18.21;51.84;101870.41;4949182;28;124302;-77
2022/08/28 02:23:27;;;;;;;8.95;3.25;;;;;;;18.21;52.15;101873.09;4925676;28;121988;-78
2022/08/28 02:25:54;;;;;;;9.13;3.25;;;;;;;18.21;52.24;101875.75;4951861;28;114854;-78
2022/08/28 02:28:21;;;;;;;8.80;3.42;;;;;;;18.22;52.45;101882.88;4950339;28;115208;-79
2022/08/28 02:30:48;;;;;;;10.05;3.33;;;;;;;18.22;52.38;101877.50;4948002;28;123728;-77
2022/08/28 02:33:15;;;;;;;9.57;3.33;;;;;;;18.23;52.43;101879.22;4935300;28;123227;-79
2022/08/28 02:35:42;;;;;;;6.50;3.20;;;;;;;18.24;52.54;101875.59;4950851;28;114009;-79
2022/08/28 02:38:10;;;;;;;9.07;3.20;;;;;;;18.23;52.52;101873.84;4938304;28;113430;-77
2022/08/28 02:40:39;;;;;;;9.52;3.00;;;;;;;18.24;52.56;101870.22;4953123;28;123775;-78
2022/08/28 02:43:06;;;;;;;8.93;3.20;;;;;;;18.25;52.61;101877.28;4951996;28;123545;-79
2022/08/28 02:45:34;;;;;;;9.27;3.00;;;;;;;18.24;52.50;101875.59;4938622;28;113879;-77
2022/08/28 02:48:02;;;;;;;8.27;2.90;;;;;;;18.22;52.55;101873.00;4967603;28;113997;-77
2022/08/28 02:50:30;;;;;;;6.30;2.70;;;;;;;18.20;52.51;101874.91;4934098;28;123095;-79
2022/08/28 02:52:57;;;;;;;9.50;3.08;;;;;;;18.20;52.47;101874.06;4952638;28;123637;-78
2022/08/28 02:55:24;;;;;;;8.77;3.00;;;;;;;18.17;52.73;101871.56;4948759;28;114253;-79
2022/08/28 02:57:53;;;;;;;6.82;3.00;;;;;;;18.13;52.58;101872.69;4942141;28;114256;-79
2022/08/28 03:00:24;;;;;;;10.40;3.13;;;;;;;18.11;52.58;101869.25;4949301;28;123054;-79
2022/08/28 03:02:52;;;;;;;6.25;2.70;;;;;;;18.07;52.98;101874.78;4938223;28;123870;-77
2022/08/28 03:05:23;;;;;;;7.32;2.78;;;;;;;18.03;52.82;101878.59;4951282;28;114471;-78
2022/08/28 03:07:52;;;;;;;8.50;3.58;;;;;;;18.01;52.77;101874.31;4936118;28;113918;-78
2022/08/28 03:10:20;;;;;;;8.55;2.92;;;;;;;18.00;52.74;101877.94;4937986;28;125316;-78
2022/08/28 03:12:47;;;;;;;6.40;2.60;;;;;;;17.97;52.78;101881.66;4945250;28;124608;-79
2022/08/28 03:15:15;;;;;;;6.18;2.60;;;;;;;17.96;52.76;101881.75;4945158;28;115571;-78
2022/08/28 03:17:42;;;;;;;6.72;2.78;;;;;;;17.93;52.75;101882.78;4952287;28;114697;-78
2022/08/28 03:20:11;;;;;;;7.78;2.70;;;;;;;17.93;52.83;101877.41;4950681;28;124706;-76
2022/08/28 03:25:25;;;;;;;8.15;2.80;;;;;;;17.89;52.63;101881.25;4943518;28;114514;-77
2022/08/28 03:27:52;;;;;;;7.15;2.67;;;;;;;17.85;52.64;101880.56;4933480;28;113877;-77
2022/08/28 03:30:20;;;;;;;12.32;3.15;;;;;;;17.84;52.88;101883.31;4942309;28;123058;-77
2022/08/28 03:32:47;;;;;;;6.63;3.08;;;;;;;17.82;52.86;101890.56;4952450;28;123669;-78
2022/08/28 03:35:15;;;;;;;6.25;2.47;;;;;;;17.80;53.11;101889.78;4967887;28;113505;-77
2022/08/28 03:37:43;;;;;;;10.75;3.22;;;;;;;17.79;52.81;101890.75;4953224;28;113674;-79
2022/08/28 03:40:11;;;;;;;6.32;2.58;;;;;;;17.76;52.95;101885.56;4950310;28;123019;-77
2022/08/28 03:42:38;;;;;;;6.30;2.85;;;;;;;17.75;52.95;101881.19;4938833;28;122804;-78
2022/08/28 03:45:10;;;;;;;9.18;2.85;;;;;;;17.73;53.02;101885.75;4945765;28;114132;-78
2022/08/28 03:47:38;;;;;;;9.35;3.00;;;;;;;17.73;53.11;101894.66;4930264;28;114227;-78
2022/08/28 03:50:10;;;;;;;8.73;2.92;;;;;;;17.70;53.07;101898.34;4934895;28;123410;-79
2022/08/28 03:52:39;;;;;;;6.60;2.97;;;;;;;17.70;53.29;101909.06;4952641;28;123996;-77
2022/08/28 03:55:09;;;;;;;9.18;3.08;;;;;;;17.70;53.50;101906.41;4948020;28;113573;-79
2022/08/28 03:57:36;;;;;;;10.63;3.03;;;;;;;17.69;53.52;101906.50;4965105;28;114224;-77
2022/08/28 04:00:08;;;;;;;7.53;2.97;;;;;;;17.70;53.47;101909.06;4961297;28;123478;-77
2022/08/28 04:02:41;;;;;;;9.73;3.03;;;;;;;17.70;53.64;101903.72;4943789;28;124072;-78
2022/08/28 04:05:09;;;;;;;7.20;2.95;;;;;;;17.74;53.64;101908.91;4951632;28;114951;-78
2022/08/28 04:07:38;;;;;;;8.40;2.85;;;;;;;17.75;53.82;101905.28;4953603;28;114648;-77
2022/08/28 04:10:06;;;;;;;6.38;2.78;;;;;;;17.77;53.76;101914.09;4950311;28;124241;-77
2022/08/28 04:12:33;;;;;;;8.30;3.03;;;;;;;17.78;53.90;101907.78;4952078;28;123559;-78
2022/08/28 04:15:04;;;;;;;6.60;2.80;;;;;;;17.80;53.82;101908.53;4940323;28;113670;-77
2022/08/28 04:17:35;;;;;;;6.75;2.50;;;;;;;17.83;53.87;101911.06;4947929;28;114068;-79
2022/08/28 04:20:04;;;;;;;9.27;2.88;;;;;;;17.85;54.05;101910.03;4951648;28;123919;-78
2022/08/28 04:22:31;;;;;;;10.05;2.95;;;;;;;17.87;54.11;101915.31;4950697;28;123263;-78
2022/08/28 04:24:59;;;;;;;5.60;2.53;;;;;;;17.88;53.82;101911.69;4952535;28;113459;-78
2022/08/28 04:27:26;;;;;;;5.22;2.60;;;;;;;17.91;54.17;101911.50;4952030;28;113851;-79
2022/08/28 04:29:54;;;;;;;7.43;2.70;;;;;;;17.93;54.10;101914.94;4950848;28;124453;-76
2022/08/28 04:32:22;;;;;;;5.85;2.80;;;;;;;17.96;54.18;101909.41;4940357;28;123809;-78
2022/08/28 04:34:50;;;;;;;8.90;2.95;;;;;;;17.98;54.14;101907.50;4946781;28;114674;-78
2022/08/28 04:37:17;;;;;;;7.38;2.28;;;;;;;17.99;54.12;101917.28;4940992;28;113405;-77
2022/08/28 04:39:44;;;;;;;6.90;2.78;;;;;;;17.99;54.14;101917.28;4942555;28;124767;-79
2022/08/28 04:42:13;;;;;;;7.85;2.65;;;;;;;17.99;54.21;101919.97;4930235;28;124178;-78
2022/08/28 04:44:40;;;;;;;5.38;2.72;;;;;;;18.02;54.25;101929.63;4945579;28;114270;-80
2022/08/28 04:47:07;;;;;;;8.40;2.58;;;;;;;18.03;54.21;101921.50;4951527;28;113847;-79
2022/08/28 04:49:35;;;;;;;5.88;2.65;;;;;;;18.05;54.36;101933.00;4965045;28;123359;-79
2022/08/28 04:52:03;;;;;;;8.95;2.88;;;;;;;18.06;54.28;101932.06;4948644;28;122932;-78
2022/08/28 04:54:33;;;;;;;9.23;2.70;;;;;;;18.08;54.40;101931.94;4949086;28;114756;-79
2022/08/28 04:57:00;;;;;;;6.07;2.40;;;;;;;18.09;54.25;101926.50;4948599;28;114541;-78
2022/08/28 04:59:32;;;;;;;7.85;2.55;;;;;;;18.11;54.41;101923.72;4946209;28;123571;-79
2022/08/28 05:02:00;;;;;;;5.75;2.35;;;;;;;18.12;54.33;101929.94;4934997;28;123208;-78
2022/08/28 05:04:27;;;;;;;5.63;2.35;;;;;;;18.12;54.54;101933.50;4950757;28;114838;-78
2022/08/28 05:06:54;;;;;;;6.10;2.50;;;;;;;18.14;54.31;101938.75;4950317;28;114094;-78
2022/08/28 05:09:21;;;;;;;8.80;2.72;;;;;;;18.13;54.30;101942.41;4949808;28;123629;-79
2022/08/28 05:11:48;;;;;;;7.80;2.38;;;;;;;18.13;54.50;101937.91;4950611;28;124267;-79
2022/08/28 05:14:16;;;;;;;8.00;2.78;;;;;;;18.13;54.52;101943.25;4947229;28;114755;-79
2022/08/28 05:16:46;;;;;;;6.57;2.38;;;;;;;18.15;54.49;101940.50;4940849;28;115066;-77
2022/08/28 05:19:15;;;;;;;5.75;2.42;;;;;;;18.15;54.42;101945.84;4945252;28;123362;-78
2022/08/28 05:21:42;;;;;;;8.23;2.70;;;;;;;18.16;54.41;101947.56;4924527;28;123444;-78
2022/08/28 05:24:10;;;;;;;6.97;2.40;;;;;;;18.17;54.36;101954.66;4944997;28;113439;-78
2022/08/28 05:26:37;;;;;;;7.85;2.63;;;;;;;18.17;54.37;101949.31;4951005;28;115406;-79
2022/08/28 05:29:08;;;;;;;6.72;2.40;;;;;;;18.16;54.34;101947.56;4949908;28;124301;-78
2022/08/28 05:31:37;;;;;;;7.55;2.80;;;;;;;18.18;54.32;101956.41;4949330;28;124530;-77
2022/08/28 05:34:06;;;;;;;9.75;2.40;;;;;;;18.18;54.29;101957.25;4936860;28;114498;-78
2022/08/28 05:36:35;;;;;;;9.40;2.47;;;;;;;18.21;54.50;101958.88;4935435;28;113229;-77
2022/08/28 05:39:06;;;;;;;5.32;2.42;;;;;;;18.22;54.38;101960.63;4948791;28;123366;-78
2022/08/28 05:41:34;;;;;;;5.53;2.33;;;;;;;18.23;54.29;101965.03;4948634;28;123417;-78
2022/08/28 05:44:04;;;;;;;8.35;2.30;;;;;;;18.24;54.37;101966.75;4939687;28;114160;-78
2022/08/28 05:46:33;;;;;;;7.55;2.97;;;;;;;18.24;54.16;101956.03;4942989;28;114453;-78
2022/08/28 05:49:00;;;;;;;9.73;2.60;;;;;;;18.24;54.21;101969.44;4937463;28;124397;-78
2022/08/28 05:51:28;;;;;;;7.28;2.90;;;;;;;18.24;54.49;101966.75;4950898;28;123805;-79
2022/08/28 05:53:57;;;;;;;5.90;2.42;;;;;;;18.24;54.36;101969.44;4953159;28;114043;-78
2022/08/28 05:56:28;;;;;;;6.82;2.55;;;;;;;18.24;54.25;101966.75;4941248;28;114020;-78
2022/08/28 05:58:57;;;;;;;7.95;2.78;;;;;;;18.26;54.56;101970.22;4938258;28;124327;-78
2022/08/28 06:01:27;;;;;;;5.70;2.30;;;;;;;18.29;54.52;101976.25;4969266;28;123595;-78
2022/08/28 06:03:57;;;;;;;8.77;2.90;;;;;;;18.32;54.50;101969.84;4932474;28;113334;-78
2022/08/28 06:06:28;;;;;;;5.70;2.70;;;;;;;18.34;54.58;101981.34;4944814;28;113862;-78
2022/08/28 06:09:02;;;;;;;9.65;2.60;;;;;;;18.36;54.53;101968.69;4950554;28;122511;-77
2022/08/28 06:11:29;;;;;;;5.05;2.30;;;;;;;18.38;54.46;101980.19;4950600;28;124509;-77
2022/08/28 06:14:00;;;;;;;9.23;2.65;;;;;;;18.41;54.53;101974.66;4953620;28;114570;-78
2022/08/28 06:16:31;;;;;;;8.23;2.60;;;;;;;18.44;54.67;101979.84;4945054;28;113241;-78
2022/08/28 06:18:59;;;;;;;6.70;2.42;;;;;;;18.45;54.48;101986.94;4949480;28;121988;-80
2022/08/28 06:21:27;;;;;;;7.30;2.92;;;;;;;18.51;54.66;101990.19;4936427;28;122196;-78
2022/08/28 06:23:54;;;;;;;4.85;2.30;;;;;;;18.56;54.61;101985.44;4939923;28;114145;-79
2022/08/28 06:26:22;;;;;;;7.13;2.88;;;;;;;18.64;54.68;101985.81;4953863;28;113959;-79
2022/08/28 06:28:51;;;;;;;9.60;2.75;;;;;;;18.69;54.55;101978.34;4952184;28;124266;-78
2022/08/28 06:31:19;;;;;;;6.90;2.47;;;;;;;18.75;54.61;101983.34;4937530;28;121925;-78
2022/08/28 06:33:56;;;;;;;8.85;3.28;;;;;;;18.80;54.44;101975.91;4950642;28;115024;-79
2022/08/28 06:36:26;;;;;;;8.68;3.13;;;;;;;18.89;54.40;101984.34;4936028;28;114457;-79
2022/08/28 06:38:56;;;;;;;8.40;2.83;;;;;;;18.98;54.39;101981.09;4935989;28;123422;-78
2022/08/28 06:41:24;;;;;;;10.93;2.90;;;;;;;19.07;54.75;101983.19;4952341;28;123292;-79
2022/08/28 06:43:52;;;;;;;10.27;2.63;;;;;;;19.19;54.52;101990.50;4945530;28;114252;-78
2022/08/28 06:46:20;;;;;;;7.47;2.60;;;;;;;19.32;54.30;101982.50;4931376;28;112873;-78
2022/08/28 06:48:47;;;;;;;7.72;2.33;;;;;;;19.44;54.13;101988.94;4952591;28;123716;-79
2022/08/28 06:51:15;;;;;;;7.05;2.58;;;;;;;19.57;53.96;101992.56;4968189;28;122873;-79
2022/08/28 06:53:44;;;;;;;9.02;2.42;;;;;;;19.72;53.84;101995.19;4959965;28;114258;-78
2022/08/28 06:56:17;;;;;;;7.38;2.30;;;;;;;19.87;53.51;101994.19;4972771;28;113604;-76
2022/08/28 06:58:56;;;;;;;7.55;2.00;;;;;;;20.02;53.35;101989.63;4972056;28;122163;-78
2022/08/28 07:01:32;;;;;;;7.72;2.25;;;;;;;20.18;53.04;101992.19;4973526;28;124181;-78
2022/08/28 07:04:03;;;;;;;6.55;1.92;;;;;;;20.34;53.21;101995.56;4951662;28;112811;-78
2022/08/28 07:06:33;;;;;;;5.95;2.35;;;;;;;20.52;52.63;101992.56;4941223;28;112866;-78
2022/08/28 07:09:01;;;;;;;9.80;1.88;;;;;;;20.68;52.18;102001.34;4936896;28;123764;-77
2022/08/28 07:11:30;;;;;;;5.68;2.03;;;;;;;20.85;52.22;102001.97;4950306;28;121802;-78
2022/08/28 07:13:58;;;;;;;7.97;2.10;;;;;;;21.02;51.46;102004.38;4952300;28;114629;-78
2022/08/28 07:16:32;;;;;;;7.40;1.92;;;;;;;21.14;51.19;101998.09;4952760;28;113656;-78
2022/08/28 07:19:03;;;;;;;8.48;1.88;;;;;;;21.29;51.07;102000.66;4949830;28;122771;-78
2022/08/28 07:21:32;;;;;;;9.50;2.03;;;;;;;21.44;50.80;101999.59;4944519;28;124761;-78
2022/08/28 07:24:06;;;;;;;5.63;2.10;;;;;;;21.60;50.68;101998.47;4930014;28;115113;-77
2022/08/28 07:26:33;;;;;;;6.50;2.03;;;;;;;21.73;50.32;101996.56;4950949;28;115105;-78
2022/08/28 07:29:03;;;;;;;5.85;1.80;;;;;;;21.87;50.11;102004.50;4951418;28;124110;-79
2022/08/28 07:31:40;;;;;;;5.40;1.98;;;;;;;22.02;49.32;101993.53;4938300;28;123585;-79
2022/08/28 07:34:10;;;;;;;8.55;1.67;;;;;;;22.11;49.02;102003.63;4948024;28;115287;-78
2022/08/28 07:36:38;;;;;;;5.70;1.55;;;;;;;22.18;48.81;102004.91;4936761;28;113973;-78
2022/08/28 07:39:05;;;;;;;4.78;1.50;;;;;;;22.25;48.75;102010.69;4966165;28;123707;-78
2022/08/28 07:41:36;;;;;;;8.05;1.77;;;;;;;22.32;48.23;102007.44;4950406;28;123372;-77
2022/08/28 07:46:54;;;;;;;4.72;1.42;;;;;;;22.44;47.87;102000.25;4949479;28;113656;-79
2022/08/28 07:49:22;;;;;;;5.85;1.95;;;;;;;22.50;47.57;102009.72;4929243;28;123219;-78
2022/08/28 07:51:50;;;;;;;4.88;1.60;;;;;;;22.54;47.41;102013.88;4941258;28;124663;-79
2022/08/28 07:54:21;;;;;;;3.40;1.50;;;;;;;22.56;46.91;102014.63;4941471;28;114600;-78
2022/08/28 07:56:49;;;;;;;4.72;1.42;;;;;;;22.60;47.07;102021.50;4933789;28;114261;-79
2022/08/28 07:59:17;;;;;;;5.03;2.00;;;;;;;22.62;46.85;102014.16;4949355;28;124777;-79
2022/08/28 08:01:47;;;;;;;7.07;1.70;;;;;;;22.61;46.51;102012.44;4949326;28;124562;-78
2022/08/28 08:04:16;;;;;;;3.33;1.33;;;;;;;22.59;46.55;102025.19;4940428;28;113504;-79
2022/08/28 08:06:43;;;;;;;5.40;1.73;;;;;;;22.57;46.48;102027.16;4935328;28;113064;-78
2022/08/28 08:09:13;;;;;;;5.65;1.45;;;;;;;22.58;46.31;102036.97;4951260;28;124283;-78
2022/08/28 08:11:41;;;;;;;3.97;1.40;;;;;;;22.62;46.29;102030.38;4938667;28;125460;-78
2022/08/28 08:14:09;;;;;;;8.98;1.60;;;;;;;22.68;46.34;102040.69;4950372;28;114938;-77
2022/08/28 08:16:39;;;;;;;3.70;1.40;;;;;;;22.80;46.33;102038.03;4950980;28;115530;-79
2022/08/28 08:19:08;;;;;;;5.78;1.40;;;;;;;22.95;45.96;102036.81;4951088;28;124071;-78
2022/08/28 08:21:36;;;;;;;5.78;1.73;;;;;;;23.09;46.00;102036.63;4950018;28;123244;-78
2022/08/28 08:24:04;;;;;;;3.67;1.48;;;;;;;23.27;45.89;102030.72;4964808;28;112168;-78
2022/08/28 08:26:32;;;;;;;5.15;1.30;;;;;;;23.42;45.73;102037.59;4950713;28;112907;-78
2022/08/28 08:28:59;;;;;;;3.47;1.38;;;;;;;23.54;45.00;102037.59;4949592;28;123055;-78
2022/08/28 08:31:32;;;;;;;7.60;1.48;;;;;;;23.60;44.68;102037.06;4937969;28;123075;-80
2022/08/28 08:34:03;;;;;;;4.17;1.40;;;;;;;23.62;44.38;102040.50;4944940;28;114042;-77
2022/08/28 08:36:33;;;;;;;4.53;1.20;;;;;;;23.64;44.35;102027.72;4936281;28;113877;-77
2022/08/28 08:39:01;;;;;;;5.10;1.40;;;;;;;23.66;44.19;102036.59;4949879;28;124102;-79
2022/08/28 08:41:48;;;;;;;4.60;1.35;;;;;;;23.61;43.57;102034.25;4939527;28;122138;-77
2022/08/28 08:44:39;;;;;;;3.55;1.15;;;;;;;23.47;43.31;102038.09;4957329;28;112890;-78
2022/08/28 08:47:12;;;;;;;5.47;1.30;;;;;;;23.38;43.33;102037.97;4943677;28;113889;-78
2022/08/28 08:50:19;;;;;;;3.53;1.27;;;;;;;23.28;43.62;102038.72;4950610;28;124465;-78
2022/08/28 08:53:05;;;;;;;3.67;1.38;;;;;;;23.29;43.98;102035.00;4959545;28;124065;-78
2022/08/28 08:55:40;;;;;;;4.40;1.27;;;;;;;23.31;43.61;102037.59;4931426;28;113674;-77
2022/08/28 08:58:24;;;;;;;6.95;1.60;;;;;;;23.32;43.35;102033.94;4955246;28;114721;-78
2022/08/28 09:01:00;;;;;;;4.03;1.60;;;;;;;23.31;43.31;102032.19;4943151;28;122104;-78
2022/08/28 09:04:21;;;;;;;3.30;1.20;;;;;;;23.31;43.33;102043.00;4950221;28;124603;-77
2022/08/28 09:06:50;;;;;;;4.97;1.30;;;;;;;23.34;43.37;102037.38;4911053;28;114252;-78
2022/08/28 09:09:40;;;;;;;4.82;1.38;;;;;;;23.44;43.64;102024.81;4896446;28;114773;-77
2022/08/28 09:12:15;;;;;;;4.32;1.40;;;;;;;23.58;43.31;102022.81;4930381;28;124292;-78
2022/08/28 09:15:07;;;;;;;3.72;1.65;;;;;;;23.72;42.87;102030.69;4949029;28;124095;-77
2022/08/28 09:17:40;;;;;;;7.32;1.40;;;;;;;23.82;42.76;102031.66;4938462;28;113336;-76
2022/08/28 09:20:10;;;;;;;5.10;1.60;;;;;;;23.93;42.28;102032.63;4949523;28;113667;-78
2022/08/28 09:22:43;;;;;;;5.47;1.27;;;;;;;23.96;41.98;102037.78;4950655;28;124888;-78
2022/08/28 09:25:32;;;;;;;4.22;1.30;;;;;;;23.96;41.98;102032.34;4926558;28;122214;-78
2022/08/28 09:28:08;;;;;;;4.85;1.23;;;;;;;24.01;41.95;102032.84;4951797;28;114214;-78
2022/08/28 09:30:36;;;;;;;4.32;1.40;;;;;;;24.12;41.78;102026.53;4950532;28;113529;-78
2022/08/28 09:33:03;;;;;;;4.20;1.60;;;;;;;24.17;41.60;102035.16;4952305;28;124038;-78
2022/08/28 09:35:33;;;;;;;4.60;1.70;;;;;;;24.23;41.29;102030.06;4953261;28;124388;-78
2022/08/28 09:38:18;;;;;;;2.88;1.10;;;;;;;24.35;41.88;102027.28;4949067;28;113113;-78
2022/08/28 09:43:44;;;;;;;4.32;1.13;;;;;;;24.74;41.34;102022.19;4930935;28;124504;-78
2022/08/28 09:46:28;;;;;;;3.83;1.35;;;;;;;24.87;41.45;102020.13;4946542;28;124540;-79
2022/08/28 09:49:12;;;;;;;4.35;1.20;;;;;;;25.00;41.18;102026.19;4946165;28;114144;-78
2022/08/28 09:51:40;;;;;;;3.80;1.30;;;;;;;25.12;40.71;102036.94;4934687;28;113432;-78
2022/08/28 09:54:22;;;;;;;4.45;1.42;;;;;;;25.20;40.44;102029.00;4950261;28;124252;-79
2022/08/28 09:56:49;;;;;;;3.25;1.10;;;;;;;25.31;40.41;102031.63;4951674;28;123821;-79
2022/08/28 09:59:19;;;;;;;2.85;1.30;;;;;;;25.40;39.99;102025.38;4948770;28;114178;-79
2022/08/28 10:02:02;;;;;;;5.65;1.30;;;;;;;25.45;39.13;102033.97;4935791;28;114298;-79
2022/08/28 10:04:51;;;;;;;6.03;1.20;;;;;;;25.53;39.30;102029.72;4948009;28;123254;-79
2022/08/28 10:07:30;;;;;;;3.90;1.27;;;;;;;25.57;39.47;102025.75;4932435;28;122837;-79
2022/08/28 10:10:29;;;;;;;5.60;1.00;;;;;;;25.62;39.11;102018.06;4952942;28;114458;-79
2022/08/28 10:13:06;;;;;;;4.07;1.50;;;;;;;25.69;38.98;102023.75;4939572;28;113662;-79
2022/08/28 10:15:55;;;;;;;3.63;1.30;;;;;;;25.82;39.17;102019.81;4947799;28;123216;-79
2022/08/28 10:18:59;;;;;;;3.25;1.13;;;;;;;25.97;38.87;102027.56;4949248;28;123732;-79
2022/08/28 10:21:36;;;;;;;2.72;1.17;;;;;;;26.08;38.88;102026.56;4935112;28;114221;-79
2022/08/28 10:24:31;;;;;;;4.18;1.30;;;;;;;26.13;38.41;102027.84;4932313;28;112761;-79
2022/08/28 10:27:04;;;;;;;3.63;1.20;;;;;;;26.02;38.10;102031.56;4949223;28;123733;-79
2022/08/28 10:29:44;;;;;;;3.25;1.20;;;;;;;25.93;38.07;102043.25;4946586;28;123757;-78
2022/08/28 10:32:49;;;;;;;4.78;1.40;;;;;;;25.77;38.32;102027.50;4948320;28;114049;-78
2022/08/28 10:35:35;;;;;;;3.70;1.10;;;;;;;25.67;37.69;102031.19;4935731;28;113484;-79
2022/08/28 10:38:02;;;;;;;2.70;1.30;;;;;;;25.53;37.86;102040.59;4949368;28;124214;-79
2022/08/28 10:40:34;;;;;;;3.15;1.33;;;;;;;25.41;37.73;102037.97;4951789;28;123213;-79
2022/08/28 10:43:07;;;;;;;2.35;1.08;;;;;;;25.29;37.73;102036.34;4950552;28;113931;-78
2022/08/28 10:45:36;;;;;;;4.13;1.48;;;;;;;25.17;37.92;102029.28;4952221;28;113535;-79
2022/08/28 10:48:14;;;;;;;5.15;1.30;;;;;;;25.13;37.92;102033.22;4950046;28;123420;-79
2022/08/28 10:50:46;;;;;;;2.38;1.23;;;;;;;25.13;37.97;102017.84;4952627;28;124173;-79
2022/08/28 10:53:23;;;;;;;4.13;1.30;;;;;;;25.19;38.57;102019.16;4951087;28;114343;-79
2022/08/28 10:55:56;;;;;;;5.00;1.20;;;;;;;25.31;38.25;102026.22;4953128;28;113799;-79
2022/08/28 10:58:26;;;;;;;3.03;1.17;;;;;;;25.37;38.06;102025.69;4952008;28;124572;-79
2022/08/28 11:01:03;;;;;;;4.53;1.38;;;;;;;25.39;38.06;102022.81;4954710;28;125032;-79
2022/08/28 11:03:45;;;;;;;3.30;1.25;;;;;;;25.43;38.03;102027.84;4957180;28;114541;-78
2022/08/28 11:06:26;;;;;;;2.22;1.08;;;;;;;25.56;38.01;102029.44;4973420;28;112928;-79
2022/08/28 11:08:58;;;;;;;3.05;1.30;;;;;;;25.71;37.97;102022.63;4956648;28;123922;-78
2022/08/28 11:11:44;;;;;;;9.18;1.58;;;;;;;25.89;37.97;102024.66;4959336;28;123879;-79
2022/08/28 11:14:23;;;;;;;;;;;;;;;26.01;38.22;102028.97;4957484;28;116922;-79
2022/08/28 11:16:53;;;;;;;4.85;1.27;;;;;;;26.20;37.55;102028.13;4924498;28;112440;-78
2022/08/28 11:19:55;;;;;;;2.67;1.00;;;;;;;26.37;37.37;102026.56;4955823;28;124015;-78
2022/08/28 11:22:28;;;;;;;2.63;1.30;;;;;;;26.44;36.54;102024.97;4950219;28;123936;-79
2022/08/28 11:25:12;;;;;;;3.30;1.20;;;;;;;26.48;36.19;102020.97;4947996;28;113376;-78
2022/08/28 11:28:11;;;;;;;5.05;1.13;;;;;;;26.50;36.42;102024.41;4951744;28;113313;-78
2022/08/28 11:30:38;;;;;;;3.83;1.20;;;;;;;26.54;35.87;102028.56;4955810;28;123745;-78
2022/08/28 11:33:08;;;;;;;3.55;1.33;;;;;;;26.52;35.73;102033.28;4970757;28;121878;-78
2022/08/28 11:35:42;;;;;;;9.85;1.63;;;;;;;26.46;35.28;102022.97;4953445;28;113907;-78
2022/08/28 11:38:10;;;;;;;2.80;1.00;;;;;;;26.46;35.31;102028.41;4951373;28;113800;-79
2022/08/28 11:40:39;;;;;;;3.35;1.20;;;;;;;26.52;35.67;102027.84;4954675;28;122892;-78
2022/08/28 11:43:16;;;;;;;4.28;1.30;;;;;;;26.59;35.35;102034.44;4954331;28;123092;-78
2022/08/28 11:45:46;;;;;;;4.18;1.40;;;;;;;26.64;35.38;102035.88;4954048;28;115026;-78
2022/08/28 11:48:32;;;;;;;2.97;1.10;;;;;;;26.74;35.64;102031.28;4953700;28;113900;-78